Time;durP1;ratioP1;P1;durP2;ratioP2;P2;SDS_P1;SDS_P2;PMS_P1;PMS_P2;Temp;Humidity;BMP_temperature;BMP_pressure;BME280_temperature;BME280_humidity;BME280_pressure;Samples;Min_cycle;Max_cycle;Signal;HPM_P1;HPM_P2
2022/10/18 00:01:35;;;;;;;22.80;7.47;;;13.70;99.90;;;;;;4219203;28;20111;-88
2022/10/18 00:03:37;;;;;;;19.05;7.82;;;14.50;99.90;;;;;;4215900;28;20516;-87
2022/10/18 00:05:37;;;;;;;20.38;7.80;;;13.60;99.90;;;;;;4225684;28;20107;-88
2022/10/18 00:07:38;;;;;;;27.48;7.78;;;13.60;99.90;;;;;;4229742;28;20055;-88
2022/10/18 00:09:39;;;;;;;17.05;7.53;;;13.60;99.90;;;;;;4224344;28;20417;-88
2022/10/18 00:11:41;;;;;;;19.10;7.70;;;13.60;99.90;;;;;;4222759;28;20042;-88
2022/10/18 00:13:42;;;;;;;18.08;7.50;;;13.10;99.90;;;;;;4223907;28;20048;-88
2022/10/18 00:15:55;;;;;;;19.08;7.88;;;13.60;99.90;;;;;;4226378;28;20035;-88
2022/10/18 00:17:55;;;;;;;24.52;7.50;;;13.60;99.90;;;;;;4222395;28;20435;-88
2022/10/18 00:19:57;;;;;;;22.02;8.10;;;13.60;99.90;;;;;;4203788;28;20048;-88
2022/10/18 00:21:58;;;;;;;20.13;7.75;;;13.60;99.90;;;;;;4226234;28;20453;-87
2022/10/18 00:23:59;;;;;;;27.42;8.13;;;13.20;99.90;;;;;;4226334;28;20040;-88
2022/10/18 00:26:03;;;;;;;16.42;7.47;;;13.50;99.90;;;;;;4208721;28;20083;-88
2022/10/18 00:28:04;;;;;;;16.77;7.65;;;13.50;99.90;;;;;;4222155;28;20054;-88
2022/10/18 00:30:05;;;;;;;17.98;8.65;;;13.70;99.90;;;;;;4221732;28;20071;-87
2022/10/18 00:32:06;;;;;;;23.08;8.90;;;13.50;99.90;;;;;;4222037;28;20050;-88
2022/10/18 00:34:11;;;;;;;19.10;7.43;;;13.50;99.90;;;;;;4225407;28;20035;-88
2022/10/18 00:36:12;;;;;;;19.40;8.50;;;13.50;99.90;;;;;;4213215;28;20127;-88
2022/10/18 00:38:19;;;;;;;21.02;8.40;;;13.50;99.90;;;;;;4225554;28;20047;-87
2022/10/18 00:40:20;;;;;;;20.00;8.73;;;13.40;99.90;;;;;;4223008;28;20375;-88
2022/10/18 00:42:24;;;;;;;25.20;9.60;;;13.40;99.90;;;;;;4222409;28;20135;-88
2022/10/18 00:44:24;;;;;;;28.90;10.02;;;13.40;99.90;;;;;;4213027;28;20133;-88
2022/10/18 00:46:30;;;;;;;26.80;9.68;;;13.40;99.90;;;;;;4233742;28;20427;-88
2022/10/18 00:48:32;;;;;;;36.28;10.27;;;13.40;99.90;;;;;;4229479;28;20052;-88
2022/10/18 00:50:34;;;;;;;49.28;11.40;;;13.30;99.90;;;;;;4233181;28;20462;-88
2022/10/18 00:52:39;;;;;;;37.17;11.57;;;13.30;99.90;;;;;;4212507;28;20487;-88
2022/10/18 00:54:43;;;;;;;49.10;11.05;;;13.40;99.90;;;;;;4229903;28;20042;-87
2022/10/18 00:56:44;;;;;;;41.25;12.13;;;13.30;99.90;;;;;;4229896;28;20043;-88
2022/10/18 00:58:47;;;;;;;43.08;12.00;;;13.40;99.90;;;;;;4205640;28;20132;-88
2022/10/18 01:00:48;;;;;;;41.80;11.43;;;13.50;99.90;;;;;;4221772;28;20123;-88
2022/10/18 01:02:50;;;;;;;51.65;12.57;;;13.30;99.90;;;;;;4214936;28;20055;-87
2022/10/18 01:04:51;;;;;;;43.83;11.05;;;13.30;99.90;;;;;;4229731;28;20525;-87
2022/10/18 01:07:06;;;;;;;48.83;11.73;;;13.30;99.90;;;;;;4205725;28;20079;-88
2022/10/18 01:09:36;;;;;;;47.35;11.45;;;13.30;99.90;;;;;;4229416;28;20146;-88
2022/10/18 01:11:52;;;;;;;36.22;11.50;;;13.40;99.90;;;;;;4231482;28;20043;-88
2022/10/18 01:13:56;;;;;;;36.10;11.35;;;13.20;99.90;;;;;;4205254;28;20052;-88
2022/10/18 01:16:09;;;;;;;43.88;11.55;;;13.30;99.90;;;;;;4232123;28;20047;-88
2022/10/18 01:18:15;;;;;;;41.00;11.60;;;13.30;99.90;;;;;;4245864;27;20507;-87
2022/10/18 01:20:56;;;;;;;43.13;11.77;;;13.30;99.90;;;;;;4230289;28;20043;-88
2022/10/18 01:23:17;;;;;;;42.65;11.40;;;13.30;99.90;;;;;;4223081;28;20060;-88
2022/10/18 01:25:57;;;;;;;43.95;11.60;;;13.30;99.90;;;;;;4233247;28;20047;-87
2022/10/18 01:28:35;;;;;;;62.80;13.13;;;13.20;99.90;;;;;;4234235;28;20419;-88
2022/10/18 01:30:52;;;;;;;66.43;11.73;;;13.30;99.90;;;;;;4220440;28;20032;-87
2022/10/18 01:32:59;;;;;;;62.90;12.05;;;13.30;99.90;;;;;;4212080;28;20060;-87
2022/10/18 01:35:10;;;;;;;39.15;13.15;;;13.20;99.90;;;;;;4228730;28;20067;-88
2022/10/18 01:37:15;;;;;;;43.55;11.32;;;13.20;99.90;;;;;;4223460;28;20081;-88
2022/10/18 01:39:31;;;;;;;36.80;10.55;;;13.20;99.90;;;;;;4231118;28;20115;-87
2022/10/18 01:41:35;;;;;;;38.08;10.93;;;13.20;99.90;;;;;;4228754;28;20058;-88
2022/10/18 01:43:38;;;;;;;52.60;11.50;;;13.20;99.90;;;;;;4221114;28;20083;-88
2022/10/18 01:45:41;;;;;;;53.17;11.52;;;13.20;99.90;;;;;;4202713;28;20119;-88
2022/10/18 01:47:44;;;;;;;57.60;11.90;;;13.20;99.90;;;;;;4233299;27;20079;-88
2022/10/18 01:49:46;;;;;;;41.25;11.88;;;13.20;99.90;;;;;;4228906;28;20048;-88
2022/10/18 01:51:47;;;;;;;91.00;10.98;;;13.10;99.90;;;;;;4220176;28;20040;-88
2022/10/18 01:53:48;;;;;;;117.40;12.63;;;13.10;99.90;;;;;;4232980;28;20079;-88
2022/10/18 01:56:24;;;;;;;113.28;12.75;;;13.10;99.90;;;;;;4220291;28;20052;-88
2022/10/18 01:58:35;;;;;;;163.43;13.15;;;13.10;99.90;;;;;;4218907;28;20040;-88
2022/10/18 02:00:41;;;;;;;208.60;14.32;;;13.10;99.90;;;;;;4231233;28;20214;-88
2022/10/18 02:03:10;;;;;;;139.68;13.43;;;13.10;99.90;;;;;;4221082;28;20067;-88
2022/10/18 02:05:16;;;;;;;192.10;14.40;;;13.10;99.90;;;;;;4223301;28;20520;-88
2022/10/18 02:07:30;;;;;;;159.88;14.18;;;13.10;99.90;;;;;;4229318;28;20047;-88
2022/10/18 02:09:39;;;;;;;168.80;13.48;;;13.10;99.90;;;;;;4204771;28;20052;-88
2022/10/18 02:11:42;;;;;;;184.30;13.77;;;13.10;99.90;;;;;;4229505;28;20054;-88
2022/10/18 02:13:52;;;;;;;176.88;13.77;;;13.10;99.90;;;;;;4204077;28;20066;-88
2022/10/18 02:15:58;;;;;;;121.72;12.55;;;13.10;99.90;;;;;;4214871;28;20097;-88
2022/10/18 02:18:00;;;;;;;104.10;12.20;;;13.10;99.90;;;;;;4219435;28;20072;-88
2022/10/18 02:20:04;;;;;;;79.28;11.63;;;13.10;99.90;;;;;;4221717;28;20051;-87
2022/10/18 02:22:09;;;;;;;35.72;9.50;;;13.10;99.90;;;;;;4219366;28;20487;-87
2022/10/18 02:24:13;;;;;;;56.92;10.20;;;13.10;99.90;;;;;;4215224;28;20109;-87
2022/10/18 02:26:15;;;;;;;96.63;11.02;;;13.10;99.90;;;;;;4219119;28;20059;-87
2022/10/18 02:28:15;;;;;;;84.70;10.68;;;13.10;99.90;;;;;;4220862;28;20040;-87
2022/10/18 02:30:16;;;;;;;45.80;9.18;;;13.00;99.90;;;;;;4211254;28;20066;-87
2022/10/18 02:32:46;;;;;;;77.38;11.10;;;13.10;99.90;;;;;;4231042;28;20089;-87
2022/10/18 02:35:18;;;;;;;85.93;10.95;;;13.00;99.90;;;;;;4215991;28;20137;-87
2022/10/18 02:37:19;;;;;;;41.45;9.70;;;13.00;99.90;;;;;;4210818;28;20130;-88
2022/10/18 02:39:35;;;;;;;65.68;10.63;;;13.00;99.90;;;;;;4207881;28;20044;-88
2022/10/18 02:41:36;;;;;;;28.85;9.73;;;13.00;99.90;;;;;;4233028;28;20050;-88
2022/10/18 02:43:37;;;;;;;46.80;9.60;;;13.00;99.90;;;;;;4231469;28;20083;-87
2022/10/18 02:45:39;;;;;;;28.05;9.07;;;12.90;99.90;;;;;;4233348;28;20039;-88
2022/10/18 02:47:40;;;;;;;58.65;9.27;;;12.90;99.90;;;;;;4231879;28;20406;-88
2022/10/18 02:49:41;;;;;;;57.03;8.82;;;12.90;99.90;;;;;;4231781;28;20040;-88
2022/10/18 02:51:42;;;;;;;46.65;9.18;;;12.90;99.90;;;;;;4214723;28;20174;-88
2022/10/18 02:53:42;;;;;;;39.72;8.93;;;12.90;99.90;;;;;;4231708;28;20553;-88
2022/10/18 02:55:43;;;;;;;55.03;9.50;;;12.90;99.90;;;;;;4214323;28;20055;-88
2022/10/18 02:57:44;;;;;;;51.13;9.20;;;12.80;99.90;;;;;;4231588;28;20409;-88
2022/10/18 02:59:44;;;;;;;63.38;9.38;;;12.80;99.90;;;;;;4232979;28;20055;-88
2022/10/18 03:01:48;;;;;;;52.75;9.98;;;12.80;99.90;;;;;;4232614;28;20035;-88
2022/10/18 03:03:49;;;;;;;62.30;9.18;;;12.80;99.90;;;;;;4233218;28;20040;-88
2022/10/18 03:05:51;;;;;;;63.80;8.82;;;12.80;99.90;;;;;;4231814;28;20039;-87
2022/10/18 03:07:52;;;;;;;40.58;9.23;;;12.70;99.90;;;;;;4231764;28;20527;-87
2022/10/18 03:09:52;;;;;;;52.15;9.32;;;12.70;99.90;;;;;;4232635;28;20035;-88
2022/10/18 03:11:53;;;;;;;37.95;8.60;;;12.70;99.90;;;;;;4231755;28;20051;-88
2022/10/18 03:13:54;;;;;;;64.18;9.23;;;12.60;99.90;;;;;;4233166;28;20091;-87
2022/10/18 03:15:54;;;;;;;53.20;9.55;;;12.60;99.90;;;;;;4231447;28;20051;-88
2022/10/18 03:17:56;;;;;;;34.20;8.63;;;12.60;99.90;;;;;;4233118;28;20100;-87
2022/10/18 03:19:57;;;;;;;51.97;8.93;;;12.60;99.90;;;;;;4231414;28;20048;-88
2022/10/18 03:21:57;;;;;;;59.22;9.30;;;12.60;99.90;;;;;;4232698;28;20035;-88
2022/10/18 03:23:58;;;;;;;43.13;8.45;;;12.60;99.90;;;;;;4213866;28;20048;-88
2022/10/18 03:26:00;;;;;;;42.53;8.63;;;12.60;99.90;;;;;;4217833;28;20048;-87
2022/10/18 03:28:01;;;;;;;27.55;9.40;;;12.60;99.90;;;;;;4236008;28;20091;-87
2022/10/18 03:30:05;;;;;;;38.13;9.23;;;12.60;99.90;;;;;;4235347;28;20046;-87
2022/10/18 03:32:05;;;;;;;39.13;9.10;;;12.60;99.90;;;;;;4214196;28;20098;-87
2022/10/18 03:34:06;;;;;;;26.10;9.07;;;12.60;99.90;;;;;;4232608;28;20047;-86
2022/10/18 03:36:07;;;;;;;38.60;9.00;;;12.60;99.90;;;;;;4232450;28;20039;-87
2022/10/18 03:38:09;;;;;;;33.53;9.25;;;12.50;99.90;;;;;;4230814;28;20122;-87
2022/10/18 03:40:10;;;;;;;40.05;10.23;;;12.50;99.90;;;;;;4231331;28;20075;-87
2022/10/18 03:42:10;;;;;;;44.45;9.35;;;12.50;99.90;;;;;;4231292;28;20590;-87
2022/10/18 03:44:11;;;;;;;47.92;9.65;;;12.50;99.90;;;;;;4230929;28;20512;-87
2022/10/18 03:46:12;;;;;;;53.72;9.15;;;12.50;99.90;;;;;;4231780;28;20039;-87
2022/10/18 03:48:13;;;;;;;60.78;10.07;;;12.50;99.90;;;;;;4213215;28;20079;-87
2022/10/18 03:50:14;;;;;;;68.22;9.65;;;12.50;99.90;;;;;;4230756;28;20047;-87
2022/10/18 03:52:14;;;;;;;82.80;10.45;;;12.50;99.90;;;;;;4214034;28;20086;-87
2022/10/18 03:54:15;;;;;;;42.88;9.38;;;12.50;99.90;;;;;;4231462;28;20040;-86
2022/10/18 03:56:16;;;;;;;48.38;8.90;;;12.50;99.90;;;;;;4230419;28;20426;-87
2022/10/18 03:58:16;;;;;;;44.88;9.55;;;12.50;99.90;;;;;;4213361;28;20413;-87
2022/10/18 04:00:17;;;;;;;56.30;9.85;;;12.40;99.90;;;;;;4231943;28;20062;-86
2022/10/18 04:02:18;;;;;;;95.47;11.00;;;12.50;99.90;;;;;;4230450;28;20049;-87
2022/10/18 04:04:19;;;;;;;73.47;9.88;;;12.50;99.90;;;;;;4231092;28;20540;-87
2022/10/18 04:06:20;;;;;;;56.22;10.02;;;12.50;99.90;;;;;;4232052;28;20381;-87
2022/10/18 04:08:21;;;;;;;66.63;10.65;;;12.50;99.90;;;;;;4230388;28;20416;-87
2022/10/18 04:10:22;;;;;;;64.10;10.18;;;12.50;99.90;;;;;;4231072;28;20048;-87
2022/10/18 04:12:23;;;;;;;40.75;8.52;;;12.50;99.90;;;;;;4231734;28;20043;-87
2022/10/18 04:14:24;;;;;;;44.15;9.18;;;12.50;99.90;;;;;;4229629;28;20051;-87
2022/10/18 04:16:24;;;;;;;40.92;9.52;;;12.40;99.90;;;;;;4213535;28;20485;-87
2022/10/18 04:18:26;;;;;;;48.03;9.40;;;12.40;99.90;;;;;;4231467;28;20085;-87
2022/10/18 04:20:27;;;;;;;32.22;8.40;;;12.40;99.90;;;;;;4230421;28;20092;-87
2022/10/18 04:22:28;;;;;;;34.45;8.95;;;12.40;99.90;;;;;;4232028;28;20464;-87
2022/10/18 04:24:32;;;;;;;38.47;9.38;;;12.40;99.90;;;;;;4231946;28;20108;-87
2022/10/18 04:26:32;;;;;;;39.47;8.95;;;12.40;99.90;;;;;;4213628;28;20123;-87
2022/10/18 04:28:34;;;;;;;34.42;9.15;;;12.40;99.90;;;;;;4214172;28;20048;-87
2022/10/18 04:30:35;;;;;;;47.03;9.52;;;12.40;99.90;;;;;;4214079;28;20098;-88
2022/10/18 04:32:35;;;;;;;35.78;8.40;;;12.40;99.90;;;;;;4230197;28;20047;-88
2022/10/18 04:34:37;;;;;;;41.92;9.15;;;12.40;99.90;;;;;;4231499;28;20054;-87
2022/10/18 04:36:38;;;;;;;50.70;9.10;;;12.30;99.90;;;;;;4230650;28;20056;-87
2022/10/18 04:38:39;;;;;;;25.88;8.38;;;12.30;99.90;;;;;;4240101;28;20047;-88
2022/10/18 04:40:39;;;;;;;47.38;9.00;;;12.30;99.90;;;;;;4221067;28;20040;-88
2022/10/18 04:42:40;;;;;;;43.80;8.82;;;12.30;99.90;;;;;;4221563;28;20486;-88
2022/10/18 04:44:40;;;;;;;39.58;9.82;;;12.30;99.90;;;;;;4239033;28;20522;-87
2022/10/18 04:46:41;;;;;;;33.47;9.18;;;12.30;99.90;;;;;;4237861;28;20081;-87
2022/10/18 04:48:43;;;;;;;46.95;8.95;;;12.20;99.90;;;;;;4240000;28;20059;-88
2022/10/18 04:50:47;;;;;;;33.58;8.52;;;12.20;99.90;;;;;;4238197;28;20544;-88
2022/10/18 04:52:48;;;;;;;25.70;9.15;;;12.20;99.90;;;;;;4235341;28;20043;-88
2022/10/18 04:54:48;;;;;;;31.48;8.55;;;12.20;99.90;;;;;;4233528;28;20151;-88
2022/10/18 04:56:49;;;;;;;24.20;8.55;;;12.20;99.90;;;;;;4232131;28;20131;-88
2022/10/18 04:58:50;;;;;;;30.92;8.48;;;12.20;99.90;;;;;;4232349;28;20485;-88
2022/10/18 05:00:51;;;;;;;25.90;8.88;;;12.20;99.90;;;;;;4214968;28;20426;-88
2022/10/18 05:02:56;;;;;;;23.58;8.25;;;12.10;99.90;;;;;;4224841;28;20038;-88
2022/10/18 05:04:57;;;;;;;26.15;8.13;;;12.20;99.90;;;;;;4214748;28;20085;-88
2022/10/18 05:06:58;;;;;;;20.58;8.60;;;12.00;99.90;;;;;;4202950;28;20099;-88
2022/10/18 05:08:59;;;;;;;27.25;8.95;;;12.10;99.90;;;;;;4221501;28;20501;-88
2022/10/18 05:11:00;;;;;;;20.10;9.65;;;12.00;99.90;;;;;;4237610;28;20040;-88
2022/10/18 05:13:01;;;;;;;23.67;8.45;;;12.00;99.90;;;;;;4241236;28;20039;-88
2022/10/18 05:15:06;;;;;;;20.02;8.60;;;12.00;99.90;;;;;;4229653;28;20048;-87
2022/10/18 05:17:07;;;;;;;22.45;8.32;;;12.00;99.90;;;;;;4229961;28;20104;-87
2022/10/18 05:19:09;;;;;;;20.58;8.98;;;12.00;99.90;;;;;;4228046;28;20040;-87
2022/10/18 05:21:11;;;;;;;22.67;7.90;;;12.00;99.90;;;;;;4225239;28;20071;-88
2022/10/18 05:23:12;;;;;;;33.97;8.10;;;12.20;99.90;;;;;;4213692;28;20070;-87
2022/10/18 05:25:13;;;;;;;14.35;6.90;;;11.90;99.90;;;;;;4223910;28;20047;-87
2022/10/18 05:27:14;;;;;;;24.90;7.43;;;11.90;99.90;;;;;;4234182;28;20474;-87
2022/10/18 05:29:15;;;;;;;24.50;6.70;;;11.90;99.90;;;;;;4234344;28;20050;-88
2022/10/18 05:31:16;;;;;;;16.70;7.55;;;11.80;99.90;;;;;;4235391;28;20042;-88
2022/10/18 05:33:17;;;;;;;19.55;6.97;;;11.80;99.90;;;;;;4217384;28;20096;-88
2022/10/18 05:35:22;;;;;;;18.30;6.25;;;11.80;99.90;;;;;;4235737;28;20133;-88
2022/10/18 05:37:23;;;;;;;18.63;7.55;;;11.60;99.90;;;;;;4217127;28;20047;-88
2022/10/18 05:39:24;;;;;;;18.05;7.13;;;11.70;99.90;;;;;;4235084;28;20040;-87
2022/10/18 05:41:25;;;;;;;15.55;6.95;;;11.70;99.90;;;;;;4234865;28;20096;-87
2022/10/18 05:43:28;;;;;;;14.30;6.70;;;11.70;99.90;;;;;;4233860;28;20078;-88
2022/10/18 05:45:29;;;;;;;18.17;6.32;;;11.70;99.90;;;;;;4216009;28;20055;-88
2022/10/18 05:47:30;;;;;;;16.67;6.22;;;11.60;99.90;;;;;;4234253;28;20039;-86
2022/10/18 05:49:31;;;;;;;17.92;6.95;;;11.60;99.90;;;;;;4234245;28;20404;-90
2022/10/18 05:51:32;;;;;;;19.13;7.70;;;11.50;99.90;;;;;;4249997;27;20043;-89
2022/10/18 05:53:34;;;;;;;15.45;6.70;;;11.60;99.90;;;;;;4233779;28;20184;-89
2022/10/18 05:55:36;;;;;;;15.95;6.80;;;11.50;99.90;;;;;;4234079;27;20046;-88
2022/10/18 05:57:37;;;;;;;20.10;7.20;;;11.50;99.90;;;;;;4234195;28;20042;-89
2022/10/18 05:59:38;;;;;;;18.45;7.07;;;11.50;99.90;;;;;;4215585;28;20487;-89
2022/10/18 06:01:41;;;;;;;19.23;7.90;;;11.50;99.90;;;;;;4232722;28;20428;-89
2022/10/18 06:03:42;;;;;;;22.08;8.48;;;10.80;99.90;;;;;;4233835;28;20091;-89
2022/10/18 06:05:43;;;;;;;21.55;7.20;;;11.40;99.90;;;;;;4216447;28;20128;-89
2022/10/18 06:07:44;;;;;;;21.30;7.82;;;11.40;99.90;;;;;;4233714;28;20043;-89
2022/10/18 06:09:44;;;;;;;26.23;9.23;;;11.40;99.90;;;;;;4232398;28;20084;-88
2022/10/18 06:11:45;;;;;;;52.63;9.15;;;11.40;99.90;;;;;;4232101;28;20456;-88
2022/10/18 06:13:48;;;;;;;58.75;8.32;;;11.30;99.90;;;;;;4233088;28;20074;-88
2022/10/18 06:15:49;;;;;;;65.85;9.93;;;11.30;99.90;;;;;;4216333;28;20094;-87
2022/10/18 06:17:50;;;;;;;47.28;8.13;;;11.40;99.90;;;;;;4233328;28;20527;-87
2022/10/18 06:19:50;;;;;;;33.13;7.72;;;11.30;99.90;;;;;;4233093;28;20044;-87
2022/10/18 06:21:51;;;;;;;39.83;7.68;;;11.30;99.90;;;;;;4232842;28;20036;-86
2022/10/18 06:23:55;;;;;;;23.65;7.28;;;11.30;99.90;;;;;;4215939;28;20452;-86
2022/10/18 06:26:04;;;;;;;26.98;7.82;;;11.30;99.90;;;;;;4234532;28;20044;-85
2022/10/18 06:28:05;;;;;;;20.20;6.57;;;11.10;99.90;;;;;;4235129;28;20096;-86
2022/10/18 06:30:07;;;;;;;13.57;6.15;;;11.10;99.90;;;;;;4233179;28;20524;-85
2022/10/18 06:32:08;;;;;;;18.25;6.47;;;11.20;99.90;;;;;;4233265;28;20105;-87
2022/10/18 06:34:08;;;;;;;11.00;5.78;;;11.10;99.90;;;;;;4216351;28;20052;-86
2022/10/18 06:36:15;;;;;;;14.27;6.68;;;11.10;99.90;;;;;;4235460;28;20042;-87
2022/10/18 06:38:21;;;;;;;11.73;5.90;;;11.10;99.90;;;;;;4231876;28;20073;-86
2022/10/18 06:40:22;;;;;;;12.80;5.60;;;11.10;99.90;;;;;;4232999;28;20401;-88
2022/10/18 06:42:23;;;;;;;14.23;6.45;;;11.00;99.90;;;;;;4216232;28;20123;-86
2022/10/18 06:44:24;;;;;;;10.77;5.15;;;11.00;99.90;;;;;;4234345;28;20035;-86
2022/10/18 06:46:26;;;;;;;12.80;6.10;;;11.00;99.90;;;;;;4233318;28;20051;-86
2022/10/18 06:48:26;;;;;;;13.80;5.75;;;11.00;99.90;;;;;;4232303;28;20153;-88
2022/10/18 06:50:28;;;;;;;12.98;6.55;;;12.30;99.90;;;;;;4214867;28;20043;-87
2022/10/18 06:52:29;;;;;;;15.18;6.65;;;11.00;99.90;;;;;;4216100;28;20051;-87
2022/10/18 06:54:30;;;;;;;13.25;6.18;;;10.90;99.90;;;;;;4234231;28;20043;-87
2022/10/18 06:56:30;;;;;;;11.25;5.53;;;10.90;99.90;;;;;;4216210;28;20600;-86
2022/10/18 06:58:32;;;;;;;13.77;6.13;;;11.00;99.90;;;;;;4232622;28;20094;-87
2022/10/18 07:00:33;;;;;;;15.52;6.47;;;11.00;99.90;;;;;;4232979;28;20477;-86
2022/10/18 07:02:34;;;;;;;13.38;6.75;;;11.00;99.90;;;;;;4234143;28;20050;-86
2022/10/18 07:04:36;;;;;;;14.57;6.28;;;11.10;99.90;;;;;;4233720;28;20044;-86
2022/10/18 07:06:49;;;;;;;12.63;6.15;;;11.20;99.90;;;;;;4215469;28;20056;-86
2022/10/18 07:08:51;;;;;;;16.52;5.72;;;11.20;99.90;;;;;;4233434;28;20040;-86
2022/10/18 07:10:52;;;;;;;12.70;5.70;;;11.20;99.90;;;;;;4214733;28;20098;-85
2022/10/18 07:12:53;;;;;;;15.75;6.47;;;11.30;99.90;;;;;;4232090;28;20075;-86
2022/10/18 07:14:54;;;;;;;13.18;5.90;;;11.20;99.90;;;;;;4232533;28;20441;-86
2022/10/18 07:16:58;;;;;;;16.58;5.50;;;12.70;99.90;;;;;;4232403;28;20048;-88
2022/10/18 07:18:59;;;;;;;10.95;5.80;;;11.20;99.90;;;;;;4232311;28;20055;-86
2022/10/18 07:21:10;;;;;;;11.65;5.45;;;11.20;99.90;;;;;;4233206;28;20136;-86
2022/10/18 07:23:11;;;;;;;17.95;5.30;;;11.30;99.90;;;;;;4234792;28;20089;-86
2022/10/18 07:25:12;;;;;;;15.57;5.25;;;11.30;99.90;;;;;;4216006;28;20048;-87
2022/10/18 07:27:13;;;;;;;11.85;5.10;;;11.30;99.90;;;;;;4235072;28;20051;-87
2022/10/18 07:29:13;;;;;;;11.80;5.20;;;11.30;99.90;;;;;;4232916;28;20063;-87
2022/10/18 07:31:15;;;;;;;13.85;4.30;;;11.60;99.90;;;;;;4233611;28;20039;-88
2022/10/18 07:33:16;;;;;;;10.98;4.00;;;11.40;99.90;;;;;;4231606;28;20047;-86
2022/10/18 07:35:17;;;;;;;17.00;4.40;;;11.50;99.90;;;;;;4233742;28;20450;-86
2022/10/18 07:37:18;;;;;;;7.82;3.33;;;11.50;99.90;;;;;;4232724;28;20054;-87
2022/10/18 07:39:18;;;;;;;11.13;4.13;;;11.50;99.90;;;;;;4232455;28;20051;-86
2022/10/18 07:41:20;;;;;;;12.57;4.57;;;11.60;99.90;;;;;;4233553;28;20044;-87
2022/10/18 07:43:28;;;;;;;13.95;4.32;;;11.60;99.90;;;;;;4233867;28;20553;-86
2022/10/18 07:45:29;;;;;;;12.15;4.38;;;11.60;99.90;;;;;;4233437;28;20047;-86
2022/10/18 07:47:29;;;;;;;9.48;4.45;;;11.70;99.90;;;;;;4215216;28;20486;-87
2022/10/18 07:49:30;;;;;;;9.43;4.38;;;11.60;99.90;;;;;;4232218;28;20043;-87
2022/10/18 07:51:31;;;;;;;13.63;4.60;;;11.70;99.90;;;;;;4232821;28;20115;-86
2022/10/18 07:53:33;;;;;;;17.02;4.75;;;11.80;99.90;;;;;;4214514;28;20044;-87
2022/10/18 07:55:34;;;;;;;10.82;4.80;;;11.80;99.90;;;;;;4231098;28;20050;-87
2022/10/18 07:57:34;;;;;;;10.77;4.57;;;11.80;99.90;;;;;;4231735;28;20493;-87
2022/10/18 07:59:37;;;;;;;18.98;5.32;;;11.90;99.90;;;;;;4232005;28;20039;-87
2022/10/18 08:01:38;;;;;;;16.38;4.93;;;11.90;99.90;;;;;;4231956;28;20505;-87
2022/10/18 08:03:40;;;;;;;15.80;5.68;;;11.90;99.90;;;;;;4232651;28;20047;-87
2022/10/18 08:05:40;;;;;;;14.20;4.80;;;12.10;99.90;;;;;;4214886;28;20486;-86
2022/10/18 08:07:41;;;;;;;13.00;4.38;;;12.30;99.90;;;;;;4234052;28;20039;-87
2022/10/18 08:09:43;;;;;;;13.38;4.20;;;12.30;99.90;;;;;;4232616;28;20035;-92
2022/10/18 08:11:44;;;;;;;15.88;4.47;;;12.40;99.90;;;;;;4213947;28;20559;-88
2022/10/18 08:13:45;;;;;;;11.50;4.32;;;12.40;99.90;;;;;;4231713;28;20060;-88
2022/10/18 08:15:46;;;;;;;14.32;4.50;;;12.60;99.90;;;;;;4231868;28;20109;-89
2022/10/18 08:17:47;;;;;;;12.55;4.28;;;13.30;99.90;;;;;;4231654;28;20048;-89
2022/10/18 08:19:48;;;;;;;10.52;4.13;;;14.40;99.90;;;;;;4230834;28;20405;-88
2022/10/18 08:21:48;;;;;;;14.40;3.63;;;15.70;99.90;;;;;;4232633;28;20043;-88
2022/10/18 08:23:49;;;;;;;7.70;3.33;;;16.80;99.90;;;;;;4231155;28;20518;-86
2022/10/18 08:25:50;;;;;;;7.07;3.03;;;17.60;99.90;;;;;;4230546;28;20047;-86
2022/10/18 08:27:51;;;;;;;15.43;3.05;;;18.40;99.90;;;;;;4230218;28;20042;-86
2022/10/18 08:29:52;;;;;;;15.15;2.72;;;19.30;99.90;;;;;;4231539;28;20040;-86
2022/10/18 08:31:52;;;;;;;8.77;2.33;;;19.50;99.90;;;;;;4232139;28;20040;-86
2022/10/18 08:33:55;;;;;;;15.48;3.85;;;20.00;99.90;;;;;;4231579;28;20055;-86
2022/10/18 08:35:58;;;;;;;9.85;2.50;;;20.30;99.90;;;;;;4232595;28;20048;-87
2022/10/18 08:37:59;;;;;;;6.85;1.80;;;20.60;99.90;;;;;;4232570;28;20073;-86
2022/10/18 08:40:00;;;;;;;3.90;1.70;;;21.10;99.90;;;;;;4233320;28;20092;-86
2022/10/18 08:42:25;;;;;;;9.43;2.25;;;21.40;99.90;;;;;;4232070;28;20039;-87
2022/10/18 08:44:31;;;;;;;5.40;2.35;;;21.90;99.90;;;;;;4230981;28;20054;-86
2022/10/18 08:46:33;;;;;;;9.88;1.90;;;22.10;99.90;;;;;;4231359;28;20055;-86
2022/10/18 08:48:44;;;;;;;8.80;1.80;;;22.30;99.90;;;;;;4231694;28;20039;-86
2022/10/18 08:50:46;;;;;;;6.22;1.35;;;22.70;99.90;;;;;;4230136;28;20127;-86
2022/10/18 08:52:58;;;;;;;10.10;1.30;;;23.00;99.90;;;;;;4231195;28;20070;-86
2022/10/18 08:55:14;;;;;;;7.63;1.35;;;23.10;99.90;;;;;;4213337;28;20082;-87
2022/10/18 08:57:17;;;;;;;5.53;1.20;;;23.40;99.90;;;;;;4230182;28;20043;-87
2022/10/18 08:59:17;;;;;;;6.60;1.60;;;23.70;99.90;;;;;;4228967;28;20040;-87
2022/10/18 09:01:18;;;;;;;8.75;2.25;;;23.90;99.90;;;;;;4233386;28;20050;-87
2022/10/18 09:03:48;;;;;;;7.45;1.23;;;24.20;99.90;;;;;;4234471;28;20086;-88
2022/10/18 09:06:13;;;;;;;8.07;1.15;;;25.40;99.20;;;;;;4233623;28;20080;-87
2022/10/18 09:08:49;;;;;;;8.30;1.20;;;24.40;99.90;;;;;;4232103;28;20048;-87
2022/10/18 09:10:58;;;;;;;4.72;1.10;;;24.50;98.30;;;;;;4232175;28;20124;-87
2022/10/18 09:13:21;;;;;;;5.05;1.00;;;24.80;99.90;;;;;;4233939;28;20039;-87
2022/10/18 09:15:25;;;;;;;7.15;1.30;;;24.70;98.60;;;;;;4233318;28;20048;-87
2022/10/18 09:17:31;;;;;;;6.32;1.35;;;24.60;99.60;;;;;;4232429;28;20048;-87
2022/10/18 09:20:01;;;;;;;8.50;1.38;;;24.70;99.40;;;;;;4232995;28;20040;-87
2022/10/18 09:22:12;;;;;;;10.23;1.15;;;24.80;99.70;;;;;;4233697;28;20044;-89
2022/10/18 09:24:35;;;;;;;10.45;1.02;;;24.90;97.70;;;;;;4233435;28;20069;-91
2022/10/18 09:26:45;;;;;;;7.75;1.80;;;24.90;98.90;;;;;;4234720;28;20100;-89
2022/10/18 09:29:04;;;;;;;7.38;1.30;;;25.00;98.70;;;;;;4234694;28;20614;-89
2022/10/18 09:31:15;;;;;;;7.32;1.42;;;24.70;98.90;;;;;;4234427;28;20091;-89
2022/10/18 09:33:34;;;;;;;7.18;1.38;;;24.50;97.60;;;;;;4234199;28;20048;-90
2022/10/18 09:35:47;;;;;;;4.60;1.33;;;24.40;99.50;;;;;;4234886;28;20047;-90
2022/10/18 09:37:49;;;;;;;9.40;1.48;;;24.00;99.00;;;;;;4217041;28;20077;-90
2022/10/18 09:39:53;;;;;;;4.85;1.20;;;23.70;99.90;;;;;;4234155;28;20095;-90
2022/10/18 09:42:11;;;;;;;8.07;1.60;;;23.40;99.90;;;;;;4235205;28;20085;-90
2022/10/18 09:44:24;;;;;;;8.15;1.30;;;23.30;99.90;;;;;;4235792;28;20521;-90
2022/10/18 09:46:31;;;;;;;5.30;1.23;;;23.10;99.90;;;;;;4235152;28;20055;-89
2022/10/18 09:48:45;;;;;;;7.10;0.95;;;23.00;99.90;;;;;;4234714;28;20048;-91
2022/10/18 09:51:01;;;;;;;7.13;1.35;;;22.50;99.90;;;;;;4236306;28;20044;-90
2022/10/18 09:53:16;;;;;;;5.97;1.08;;;22.10;99.60;;;;;;4237179;28;20047;-89
2022/10/18 09:55:27;;;;;;;12.35;1.45;;;21.70;99.90;;;;;;4237600;28;20039;-89
2022/10/18 09:57:43;;;;;;;6.82;1.20;;;21.60;99.90;;;;;;4245722;28;20509;-89
2022/10/18 09:59:49;;;;;;;7.75;1.38;;;21.50;99.90;;;;;;4228239;28;20059;-90
2022/10/18 10:01:49;;;;;;;15.15;1.30;;;21.50;99.90;;;;;;4243920;28;20104;-90
2022/10/18 10:03:51;;;;;;;6.65;1.30;;;21.80;99.90;;;;;;4248006;28;20036;-90
2022/10/18 10:06:10;;;;;;;7.13;1.45;;;21.90;99.90;;;;;;4231072;28;20130;-89
2022/10/18 10:08:11;;;;;;;5.18;0.80;;;22.10;99.90;;;;;;4246209;28;20043;-89
2022/10/18 10:10:20;;;;;;;11.20;1.35;;;22.00;99.90;;;;;;4227933;28;20044;-89
2022/10/18 10:12:30;;;;;;;4.18;1.08;;;22.00;99.90;;;;;;4244094;28;20052;-89
2022/10/18 10:14:42;;;;;;;7.80;1.42;;;22.00;99.90;;;;;;4244903;28;20051;-89
2022/10/18 10:16:52;;;;;;;10.77;1.33;;;22.10;99.90;;;;;;4245937;28;20050;-91
2022/10/18 10:18:53;;;;;;;6.93;1.42;;;22.10;99.90;;;;;;4240232;28;20413;-89
2022/10/18 10:21:00;;;;;;;7.60;0.90;;;22.30;99.90;;;;;;4218494;28;20040;-89
2022/10/18 10:23:12;;;;;;;6.53;1.15;;;22.50;99.90;;;;;;4235010;28;20044;-89
2022/10/18 10:25:20;;;;;;;11.88;1.27;;;22.40;99.40;;;;;;4236300;28;20456;-89
2022/10/18 10:27:28;;;;;;;5.82;1.20;;;22.60;98.70;;;;;;4219376;28;20108;-89
2022/10/18 10:29:44;;;;;;;13.23;2.70;;;23.00;99.30;;;;;;4238113;28;20054;-89
2022/10/18 10:31:45;;;;;;;7.97;1.35;;;23.10;96.40;;;;;;4240598;28;20051;-89
2022/10/18 10:33:47;;;;;;;15.50;2.00;;;23.20;98.60;;;;;;4237620;28;20066;-89
2022/10/18 10:35:58;;;;;;;4.00;0.90;;;23.00;98.00;;;;;;4235980;28;20051;-89
2022/10/18 10:38:00;;;;;;;11.68;2.05;;;22.40;96.40;;;;;;4234642;28;20416;-90
2022/10/18 10:40:17;;;;;;;6.93;0.90;;;22.20;98.00;;;;;;4217699;28;20040;-90